createdAt,value
2022-12-19T00:02:45.893Z,6.89
2022-12-19T00:05:53.279Z,6.87
2022-12-19T00:08:59.131Z,6.71
2022-12-19T00:12:02.892Z,6.92
2022-12-19T00:15:07.641Z,6.94
2022-12-19T00:18:11.307Z,6.73
2022-12-19T00:21:18.262Z,7.00
2022-12-19T00:24:21.966Z,6.85
2022-12-19T00:27:25.728Z,6.97
2022-12-19T00:30:29.510Z,7.08
2022-12-19T00:33:33.828Z,6.98
2022-12-19T00:36:40.998Z,6.87
2022-12-19T00:39:44.501Z,7.06
2022-12-19T00:42:53.696Z,7.12
2022-12-19T00:45:57.933Z,6.98
2022-12-19T00:49:02.370Z,7.04
2022-12-19T00:52:08.720Z,7.13
2022-12-19T00:55:19.053Z,7.04
2022-12-19T00:58:24.033Z,6.75
2022-12-19T01:01:30.698Z,6.78
2022-12-19T01:04:41.086Z,6.76
2022-12-19T01:07:50.621Z,6.81
2022-12-19T01:10:54.501Z,6.77
2022-12-19T01:13:58.320Z,6.79
2022-12-19T01:17:02.434Z,6.87
2022-12-19T01:20:07.411Z,6.50
2022-12-19T01:23:16.014Z,6.89
2022-12-19T01:26:19.905Z,6.67
2022-12-19T01:29:24.374Z,6.74
2022-12-19T01:32:28.291Z,6.78
2022-12-19T01:35:31.989Z,6.61
2022-12-19T01:38:38.173Z,6.78
2022-12-19T01:41:42.067Z,6.68
2022-12-19T01:45:06.072Z,6.58
2022-12-19T01:48:17.835Z,6.65
2022-12-19T01:51:24.675Z,6.87
2022-12-19T01:54:33.839Z,6.80
2022-12-19T01:57:38.599Z,6.74
2022-12-19T02:00:44.906Z,6.85
2022-12-19T02:03:50.091Z,6.98
2022-12-19T02:06:57.394Z,7.01
2022-12-19T02:10:03.150Z,6.98
2022-12-19T02:13:12.848Z,6.95
2022-12-19T02:16:30.079Z,7.05
2022-12-19T02:20:20.247Z,6.83
2022-12-19T02:23:56.021Z,7.02
2022-12-19T02:27:22.200Z,7.01
2022-12-19T02:30:55.223Z,6.65
2022-12-19T02:34:10.404Z,6.86
2022-12-19T02:37:25.106Z,6.82
2022-12-19T02:40:34.714Z,6.72
2022-12-19T02:43:42.924Z,6.56
2022-12-19T02:46:50.925Z,6.59
2022-12-19T02:49:54.765Z,6.74
2022-12-19T02:52:58.529Z,6.60
2022-12-19T02:56:23.524Z,6.87
2022-12-19T02:59:55.761Z,6.68
2022-12-19T03:03:12.397Z,6.57
2022-12-19T03:06:26.394Z,6.09
2022-12-19T03:09:40.304Z,6.09
2022-12-19T03:12:51.511Z,6.38
2022-12-19T03:15:55.549Z,5.87
2022-12-19T03:19:00.991Z,6.18
2022-12-19T03:22:04.654Z,5.96
2022-12-19T03:25:09.413Z,6.20
2022-12-19T03:28:17.680Z,5.79
2022-12-19T03:31:24.880Z,5.85
2022-12-19T03:34:33.115Z,5.76
2022-12-19T03:37:40.169Z,6.04
2022-12-19T03:40:47.308Z,5.64
2022-12-19T03:43:50.108Z,5.47
2022-12-19T03:47:02.448Z,5.62
2022-12-19T03:50:09.890Z,5.82
2022-12-19T03:53:26.582Z,5.65
2022-12-19T03:56:41.329Z,5.79
2022-12-19T03:59:47.992Z,5.66
2022-12-19T04:02:54.389Z,5.84
2022-12-19T04:06:01.543Z,5.65
2022-12-19T04:09:05.842Z,5.54
2022-12-19T04:12:15.160Z,5.54
2022-12-19T04:15:19.613Z,5.36
2022-12-19T04:18:24.526Z,5.68
2022-12-19T04:21:34.318Z,5.68
2022-12-19T04:24:42.345Z,5.76
2022-12-19T04:27:52.593Z,5.81
2022-12-19T04:30:56.516Z,5.75
2022-12-19T04:34:00.366Z,5.96
2022-12-19T04:37:05.894Z,5.91
2022-12-19T04:40:11.323Z,5.97
2022-12-19T04:43:14.989Z,5.92
2022-12-19T04:46:18.596Z,6.05
2022-12-19T04:49:22.230Z,6.19
2022-12-19T04:52:27.546Z,6.10
2022-12-19T04:55:31.282Z,6.07
2022-12-19T04:58:35.213Z,6.00
2022-12-19T05:01:38.857Z,6.10
2022-12-19T05:04:42.613Z,6.17
2022-12-19T05:07:48.340Z,6.32
2022-12-19T05:10:51.989Z,6.28
2022-12-19T05:13:55.590Z,6.33
2022-12-19T05:17:01.533Z,6.18
2022-12-19T05:20:07.214Z,6.35
2022-12-19T05:23:17.304Z,6.42
2022-12-19T05:26:21.549Z,6.38
2022-12-19T05:29:25.512Z,6.43
2022-12-19T05:32:32.552Z,6.62
2022-12-19T05:35:36.363Z,6.63
2022-12-19T05:38:41.659Z,6.57
2022-12-19T05:41:48.830Z,6.39
2022-12-19T05:44:53.041Z,6.47
2022-12-19T05:48:01.079Z,6.31
2022-12-19T05:51:05.367Z,6.34
2022-12-19T05:54:10.436Z,6.39
2022-12-19T05:57:14.185Z,6.40
2022-12-19T06:00:18.598Z,6.44
2022-12-19T06:03:22.732Z,6.46
2022-12-19T06:06:28.407Z,6.49
2022-12-19T06:09:34.343Z,6.45
2022-12-19T06:12:38.408Z,6.68
2022-12-19T06:15:42.290Z,6.69
2022-12-19T06:18:47.700Z,6.78
2022-12-19T06:21:52.009Z,6.89
2022-12-19T06:24:57.305Z,6.76
2022-12-19T06:28:01.105Z,6.72
2022-12-19T06:31:07.283Z,6.88
2022-12-19T06:34:22.095Z,6.68
2022-12-19T06:37:39.339Z,6.67
2022-12-19T06:41:03.870Z,6.86
2022-12-19T06:44:09.546Z,6.65
2022-12-19T06:47:14.443Z,6.73
2022-12-19T06:50:18.454Z,6.93
2022-12-19T06:53:22.605Z,6.97
2022-12-19T06:56:28.498Z,7.10
2022-12-19T06:59:32.342Z,7.00
2022-12-19T07:02:36.396Z,7.25
2022-12-19T07:05:41.416Z,7.03
2022-12-19T07:08:45.373Z,6.87
2022-12-19T07:11:50.594Z,6.79
2022-12-19T07:14:54.528Z,6.96
2022-12-19T07:17:59.198Z,7.10
2022-12-19T07:21:03.694Z,6.81
2022-12-19T07:24:11.652Z,6.72
2022-12-19T07:27:16.901Z,7.02
2022-12-19T07:30:20.909Z,7.02
2022-12-19T07:33:24.593Z,7.09
2022-12-19T07:36:28.445Z,7.33
2022-12-19T07:39:32.334Z,7.35
2022-12-19T07:42:37.600Z,7.10
2022-12-19T07:45:41.766Z,6.96
2022-12-19T07:48:45.746Z,7.14
2022-12-19T07:51:50.018Z,7.15
2022-12-19T07:54:53.907Z,6.95
2022-12-19T07:57:59.210Z,6.74
2022-12-19T08:01:03.890Z,6.59
2022-12-19T08:04:07.713Z,6.62
2022-12-19T08:07:13.070Z,6.87
2022-12-19T08:10:16.892Z,6.55
2022-12-19T08:13:22.274Z,6.88
2022-12-19T08:16:29.172Z,7.18
2022-12-19T08:19:33.168Z,7.09
2022-12-19T08:22:37.261Z,7.29
2022-12-19T08:25:41.111Z,7.27
2022-12-19T08:28:48.421Z,6.81
2022-12-19T08:31:52.267Z,6.66
2022-12-19T08:34:56.928Z,6.91
2022-12-19T08:38:00.719Z,6.92
2022-12-19T08:41:05.206Z,6.80
2022-12-19T08:44:12.990Z,6.84
2022-12-19T08:47:18.171Z,6.72
2022-12-19T08:50:22.160Z,6.74
2022-12-19T08:53:26.953Z,6.61
2022-12-19T08:56:31.215Z,6.68
2022-12-19T08:59:36.516Z,6.73
2022-12-19T09:02:41.310Z,6.62
2022-12-19T09:06:03.977Z,6.57
2022-12-19T09:09:09.401Z,6.78
2022-12-19T09:12:14.464Z,7.06
2022-12-19T09:15:19.925Z,6.85
2022-12-19T09:18:24.366Z,6.91
2022-12-19T09:21:30.680Z,6.61
2022-12-19T09:24:34.589Z,6.76
2022-12-19T09:28:01.255Z,6.71
2022-12-19T09:31:05.760Z,6.87
2022-12-19T09:34:09.984Z,6.73
2022-12-19T09:37:16.800Z,6.85
2022-12-19T09:40:21.641Z,6.85
2022-12-19T09:43:41.571Z,6.74
2022-12-19T09:46:52.015Z,7.02
2022-12-19T09:49:55.976Z,7.00
2022-12-19T09:53:04.851Z,7.03
2022-12-19T09:56:16.374Z,6.89
2022-12-19T09:59:37.107Z,6.62
2022-12-19T10:02:51.677Z,6.50
2022-12-19T10:06:56.228Z,6.47
2022-12-19T10:11:52.489Z,6.46
2022-12-19T10:13:14.662Z,6.67
2022-12-19T10:16:33.287Z,6.64
2022-12-19T10:19:47.806Z,6.83
2022-12-19T10:23:03.037Z,7.36
2022-12-19T10:26:12.464Z,7.65
2022-12-19T10:30:01.936Z,7.48
2022-12-19T10:33:20.727Z,7.17
2022-12-19T10:36:55.907Z,7.20
2022-12-19T10:39:58.218Z,7.18
2022-12-19T10:43:10.483Z,7.26
2022-12-19T10:46:19.669Z,7.43
2022-12-19T10:49:25.005Z,7.58
2022-12-19T10:52:53.682Z,7.60
2022-12-19T10:56:03.149Z,7.52
2022-12-19T10:59:17.935Z,7.89
2022-12-19T11:02:34.477Z,7.67
2022-12-19T11:05:45.123Z,7.26
2022-12-19T11:08:52.945Z,7.10
2022-12-19T11:16:12.313Z,7.59
2022-12-19T11:21:27.046Z,7.53
2022-12-19T11:27:04.339Z,7.55
2022-12-19T11:29:37.682Z,7.59
2022-12-19T11:30:47.827Z,7.15
2022-12-19T11:32:49.179Z,7.33
2022-12-19T11:35:56.785Z,7.48
2022-12-19T11:39:01.307Z,7.74
2022-12-19T11:42:14.007Z,7.78
2022-12-19T11:45:22.306Z,7.46
2022-12-19T11:48:36.413Z,7.26
2022-12-19T11:51:49.906Z,7.25
2022-12-19T11:55:00.864Z,7.45
2022-12-19T11:58:06.137Z,7.28
2022-12-19T12:01:22.087Z,7.40
2022-12-19T12:04:51.641Z,7.30
2022-12-19T12:08:49.414Z,7.51
2022-12-19T12:18:29.839Z,7.54
2022-12-19T12:29:21.164Z,7.41
2022-12-19T12:31:07.208Z,7.44
2022-12-19T12:31:45.376Z,7.26
2022-12-19T12:31:50.447Z,7.28
2022-12-19T12:31:58.823Z,7.33
2022-12-19T12:35:45.381Z,6.92
2022-12-19T12:40:45.921Z,6.70
2022-12-19T12:44:08.039Z,6.59
2022-12-19T12:47:19.346Z,6.65
2022-12-19T12:50:26.732Z,6.87
2022-12-19T12:53:35.837Z,7.06
2022-12-19T12:56:41.202Z,7.01
2022-12-19T12:59:47.766Z,6.87
2022-12-19T13:02:56.777Z,6.90
2022-12-19T13:06:22.692Z,6.67
2022-12-19T13:09:29.544Z,6.79
2022-12-19T13:12:50.938Z,6.91
2022-12-19T13:15:54.894Z,7.04
2022-12-19T13:19:06.245Z,7.05
2022-12-19T13:22:23.349Z,6.91
2022-12-19T13:25:54.847Z,6.64
2022-12-19T13:29:28.048Z,6.48
2022-12-19T13:32:55.197Z,6.57
2022-12-19T13:39:42.319Z,6.73
2022-12-19T13:39:56.172Z,6.57
2022-12-19T13:43:22.254Z,6.55
2022-12-19T13:46:38.412Z,6.69
2022-12-19T13:49:42.668Z,6.77
2022-12-19T13:52:51.089Z,6.66
2022-12-19T13:56:00.528Z,6.76
2022-12-19T13:59:07.407Z,6.74
2022-12-19T14:02:22.783Z,6.76
2022-12-19T14:06:09.660Z,6.84
2022-12-19T14:11:26.683Z,6.53
2022-12-19T14:13:47.550Z,6.51
2022-12-19T14:16:17.206Z,6.77
2022-12-19T14:19:24.964Z,6.64
2022-12-19T14:22:28.725Z,6.56
2022-12-19T14:28:16.743Z,6.57
2022-12-19T14:29:08.404Z,6.37
2022-12-19T14:33:39.246Z,6.55
2022-12-19T14:36:06.966Z,6.38
2022-12-19T14:39:24.703Z,6.25
2022-12-19T14:43:30.234Z,6.43
2022-12-19T14:51:51.709Z,6.56
2022-12-19T14:54:05.763Z,5.87
2022-12-19T14:54:40.049Z,6.17
2022-12-19T14:56:59.322Z,6.16
2022-12-19T15:01:07.304Z,6.13
2022-12-19T15:04:50.973Z,6.20
2022-12-19T15:07:23.439Z,6.24
2022-12-19T15:11:08.479Z,6.32
2022-12-19T15:14:51.285Z,6.05
2022-12-19T15:17:22.963Z,6.06
2022-12-19T15:20:28.241Z,6.27
2022-12-19T15:23:33.157Z,6.18
2022-12-19T15:26:47.575Z,5.97
2022-12-19T15:29:51.808Z,6.16
2022-12-19T15:32:55.814Z,5.93
2022-12-19T15:36:01.623Z,6.36
2022-12-19T15:39:05.697Z,6.50
2022-12-19T15:42:19.188Z,6.40
2022-12-19T15:45:22.964Z,6.19
2022-12-19T15:48:27.811Z,6.28
2022-12-19T15:51:33.155Z,6.18
2022-12-19T15:54:52.284Z,6.42
2022-12-19T15:57:59.381Z,6.49
2022-12-19T16:01:05.405Z,6.42
2022-12-19T16:04:14.793Z,6.37
2022-12-19T16:07:22.021Z,6.32
2022-12-19T16:10:26.965Z,6.28
2022-12-19T16:13:32.556Z,6.30
2022-12-19T16:16:36.406Z,5.95
2022-12-19T16:19:41.465Z,6.01
2022-12-19T16:22:46.916Z,6.03
2022-12-19T16:25:52.562Z,6.13
2022-12-19T16:28:56.687Z,6.20
2022-12-19T16:32:01.982Z,6.00
2022-12-19T16:35:17.464Z,5.90
2022-12-19T16:38:29.154Z,5.83
2022-12-19T16:41:33.208Z,5.73
2022-12-19T16:44:48.527Z,5.73
2022-12-19T16:47:53.239Z,5.55
2022-12-19T16:50:58.699Z,5.49
2022-12-19T16:54:04.073Z,5.66
2022-12-19T16:57:16.269Z,5.60
2022-12-19T17:00:22.028Z,5.66
2022-12-19T17:03:31.407Z,5.83
2022-12-19T17:06:35.347Z,5.58
2022-12-19T17:09:40.620Z,5.59
2022-12-19T17:12:45.957Z,5.41
2022-12-19T17:15:56.426Z,5.60
2022-12-19T17:19:01.169Z,5.54
2022-12-19T17:22:05.658Z,5.50
2022-12-19T17:25:18.225Z,5.65
2022-12-19T17:28:22.227Z,5.83
2022-12-19T17:31:29.677Z,5.47
2022-12-19T17:34:35.298Z,5.10
2022-12-19T17:37:39.228Z,5.33
2022-12-19T17:40:45.904Z,5.12
2022-12-19T17:43:49.686Z,5.08
2022-12-19T17:46:53.882Z,5.22
2022-12-19T17:49:57.923Z,5.32
2022-12-19T17:53:01.710Z,4.90
2022-12-19T17:56:07.445Z,4.87
2022-12-19T17:59:11.192Z,4.68
2022-12-19T18:02:25.936Z,4.92
2022-12-19T18:05:33.502Z,4.72
2022-12-19T18:08:37.439Z,4.71
2022-12-19T18:11:42.773Z,4.68
2022-12-19T18:14:46.649Z,4.57
2022-12-19T18:17:53.365Z,4.56
2022-12-19T18:20:58.614Z,4.33
2022-12-19T18:24:02.623Z,4.38
2022-12-19T18:27:07.978Z,4.08
2022-12-19T18:30:14.956Z,4.05
2022-12-19T18:33:22.896Z,4.21
2022-12-19T18:36:28.017Z,4.45
2022-12-19T18:39:33.847Z,4.43
2022-12-19T18:42:39.113Z,4.42
2022-12-19T18:45:47.393Z,4.47
2022-12-19T18:48:51.334Z,4.50
2022-12-19T18:51:55.756Z,4.22
2022-12-19T18:54:59.595Z,4.13
2022-12-19T18:58:04.836Z,4.26
2022-12-19T19:01:14.358Z,4.46
2022-12-19T19:04:18.909Z,4.19
2022-12-19T19:07:22.780Z,4.27
2022-12-19T19:10:28.861Z,4.05
2022-12-19T19:13:43.643Z,4.02
2022-12-19T19:16:47.569Z,4.29
2022-12-19T19:19:51.522Z,4.22
2022-12-19T19:22:55.663Z,4.27
2022-12-19T19:25:59.575Z,4.27
2022-12-19T19:29:05.022Z,4.58
2022-12-19T19:32:09.136Z,4.48
2022-12-19T19:35:17.184Z,4.56
2022-12-19T19:38:23.046Z,4.64
2022-12-19T19:41:30.136Z,4.46
2022-12-19T19:44:35.605Z,4.23
2022-12-19T19:47:39.512Z,4.27
2022-12-19T19:50:43.435Z,4.30
2022-12-19T19:53:47.426Z,4.33
2022-12-19T19:56:51.207Z,4.26
2022-12-19T19:59:56.484Z,4.10
2022-12-19T20:03:06.298Z,4.03
2022-12-19T20:06:12.874Z,3.78
2022-12-19T20:09:17.008Z,4.18
2022-12-19T20:12:20.959Z,3.97
2022-12-19T20:15:26.367Z,4.18
2022-12-19T20:18:30.577Z,4.39
2022-12-19T20:21:34.420Z,4.23
2022-12-19T20:24:38.126Z,4.19
2022-12-19T20:27:42.092Z,4.25
2022-12-19T20:30:47.579Z,4.37
2022-12-19T20:33:53.333Z,4.15
2022-12-19T20:36:57.333Z,3.98
2022-12-19T20:40:01.151Z,4.27
2022-12-19T20:43:04.954Z,4.12
2022-12-19T20:46:13.115Z,3.99
2022-12-19T20:49:17.192Z,4.19
2022-12-19T20:52:21.044Z,4.06
2022-12-19T20:55:24.927Z,4.12
2022-12-19T20:58:29.437Z,4.43
2022-12-19T21:01:35.211Z,4.18
2022-12-19T21:04:39.220Z,4.06
2022-12-19T21:07:43.317Z,4.18
2022-12-19T21:10:47.197Z,4.37
2022-12-19T21:13:51.263Z,4.37
2022-12-19T21:16:56.584Z,4.36
2022-12-19T21:20:00.364Z,4.35
2022-12-19T21:23:04.285Z,4.30
2022-12-19T21:26:08.303Z,4.45
2022-12-19T21:29:12.242Z,4.45
2022-12-19T21:32:19.160Z,4.35
2022-12-19T21:35:23.614Z,4.22
2022-12-19T21:38:27.403Z,3.99
2022-12-19T21:41:31.622Z,3.95
2022-12-19T21:44:35.317Z,4.12
2022-12-19T21:47:42.288Z,3.80
2022-12-19T21:50:46.263Z,3.68
2022-12-19T21:53:54.483Z,3.45
2022-12-19T21:56:58.403Z,3.26
2022-12-19T22:00:02.227Z,3.12
2022-12-19T22:03:15.254Z,3.44
2022-12-19T22:06:27.284Z,3.75
2022-12-19T22:09:32.093Z,3.54
2022-12-19T22:12:35.799Z,3.63
2022-12-19T22:15:40.355Z,4.03
2022-12-19T22:18:46.213Z,4.21
2022-12-19T22:21:50.086Z,4.20
2022-12-19T22:24:53.895Z,3.80
2022-12-19T22:27:58.148Z,3.37
2022-12-19T22:31:02.225Z,3.14
2022-12-19T22:34:09.676Z,3.68
2022-12-19T22:37:13.529Z,3.31
2022-12-19T22:40:17.675Z,3.26
2022-12-19T22:43:21.781Z,2.90
2022-12-19T22:46:27.774Z,3.26
2022-12-19T22:49:33.064Z,3.40
2022-12-19T22:52:37.143Z,3.22
2022-12-19T22:55:41.043Z,3.09
2022-12-19T22:58:47.479Z,3.33
2022-12-19T23:01:51.559Z,3.35
2022-12-19T23:04:57.004Z,3.29
2022-12-19T23:08:01.086Z,3.48
2022-12-19T23:11:05.681Z,3.43
2022-12-19T23:14:13.497Z,3.16
2022-12-19T23:17:17.698Z,3.34
2022-12-19T23:20:22.957Z,3.11
2022-12-19T23:23:26.859Z,3.27
2022-12-19T23:26:32.398Z,3.29
2022-12-19T23:29:37.452Z,3.46
2022-12-19T23:32:47.054Z,3.45
2022-12-19T23:35:55.763Z,3.72
2022-12-19T23:38:59.642Z,3.37
2022-12-19T23:42:03.612Z,3.37
2022-12-19T23:45:08.687Z,3.54
2022-12-19T23:48:12.493Z,3.67
2022-12-19T23:51:20.357Z,3.74
2022-12-19T23:54:24.167Z,3.93
2022-12-19T23:57:28.016Z,3.84
